Time;durP1;ratioP1;P1;durP2;ratioP2;P2;SDS_P1;SDS_P2;PMS_P1;PMS_P2;Temp;Humidity;BMP_temperature;BMP_pressure;BME280_temperature;BME280_humidity;BME280_pressure;Samples;Min_cycle;Max_cycle;Signal;HPM_P1;HPM_P2
2022/05/02 00:02:13;;;;;;;16.10;8.23;;;5.60;99.90;;;;;;5000019;28;20084;-94
2022/05/02 00:04:39;;;;;;;9.30;7.07;;;5.50;99.90;;;;;;5036259;28;20060;-93
2022/05/02 00:07:05;;;;;;;11.20;7.32;;;5.50;99.90;;;;;;5017457;28;20067;-93
2022/05/02 00:09:30;;;;;;;12.50;7.85;;;5.80;99.90;;;;;;5036459;28;20033;-93
2022/05/02 00:11:58;;;;;;;13.32;7.85;;;5.40;99.90;;;;;;5002689;28;20036;-94
2022/05/02 00:14:24;;;;;;;11.75;8.02;;;6.00;99.90;;;;;;5008585;28;20041;-93
2022/05/02 00:16:50;;;;;;;11.25;7.97;;;5.40;99.90;;;;;;5015288;28;20041;-92
2022/05/02 00:19:15;;;;;;;11.02;8.15;;;5.50;99.90;;;;;;5000272;28;20037;-94
2022/05/02 00:21:41;;;;;;;10.38;7.75;;;5.30;99.90;;;;;;5023597;28;20398;-93
2022/05/02 00:24:08;;;;;;;13.10;8.43;;;5.30;99.90;;;;;;5001926;28;20029;-93
2022/05/02 00:26:34;;;;;;;11.07;7.57;;;5.20;99.90;;;;;;5003452;28;20092;-93
2022/05/02 00:29:00;;;;;;;10.68;7.57;;;5.20;99.90;;;;;;5016423;28;20109;-92
2022/05/02 00:31:26;;;;;;;10.15;8.18;;;5.10;99.90;;;;;;5019284;28;20486;-94
2022/05/02 00:33:51;;;;;;;12.48;8.73;;;5.10;99.90;;;;;;5018897;28;20041;-92
2022/05/02 00:36:18;;;;;;;12.68;8.90;;;5.00;99.90;;;;;;5031738;28;20124;-94
2022/05/02 00:38:43;;;;;;;13.63;8.75;;;5.60;99.90;;;;;;5017806;28;20038;-93
2022/05/02 00:41:10;;;;;;;13.02;8.93;;;5.20;99.90;;;;;;5007742;28;20037;-93
2022/05/02 00:43:36;;;;;;;12.35;8.63;;;4.90;99.90;;;;;;5012335;28;20033;-93
2022/05/02 00:46:02;;;;;;;11.23;8.45;;;5.50;99.90;;;;;;5016889;28;20044;-94
2022/05/02 00:48:29;;;;;;;13.05;8.75;;;5.00;99.90;;;;;;5015994;28;20064;-93
2022/05/02 00:50:55;;;;;;;11.20;8.27;;;4.90;99.90;;;;;;5018010;28;20063;-93
2022/05/02 00:53:23;;;;;;;13.55;9.70;;;4.90;99.90;;;;;;5001984;28;20652;-94
2022/05/02 00:55:49;;;;;;;13.48;9.50;;;5.70;99.90;;;;;;5034615;28;20072;-93
2022/05/02 00:58:16;;;;;;;13.55;9.32;;;5.20;99.90;;;;;;5029301;28;20115;-93
2022/05/02 01:00:42;;;;;;;14.23;9.30;;;4.80;99.90;;;;;;5015907;28;20388;-93
2022/05/02 01:03:11;;;;;;;11.55;8.43;;;4.80;99.90;;;;;;5025108;28;20045;-93
2022/05/02 01:07:08;;;;;;;12.85;8.80;;;4.80;99.90;;;;;;5017898;28;20041;-93
2022/05/02 01:08:26;;;;;;;16.15;8.98;;;4.70;99.90;;;;;;5033743;28;20045;-93
2022/05/02 01:10:54;;;;;;;14.80;10.23;;;5.10;99.90;;;;;;5050472;28;20478;-94
2022/05/02 01:13:36;;;;;;;12.48;8.65;;;5.60;99.90;;;;;;5048119;28;20048;-94
2022/05/02 01:16:09;;;;;;;16.27;9.63;;;4.70;99.90;;;;;;5032023;28;20052;-94
2022/05/02 01:18:35;;;;;;;;;;;4.60;99.90;;;;;;5033565;28;20080;-93
2022/05/02 01:21:00;;;;;;;11.73;9.20;;;4.60;99.90;;;;;;5017394;28;19955;-93
2022/05/02 01:23:26;;;;;;;13.10;9.40;;;4.60;99.90;;;;;;4999869;28;20486;-93
2022/05/02 01:25:52;;;;;;;12.70;9.65;;;4.50;99.90;;;;;;5026261;28;20052;-93
2022/05/02 01:28:17;;;;;;;13.23;8.90;;;4.90;99.90;;;;;;5016366;28;20033;-94
2022/05/02 01:30:43;;;;;;;13.48;9.20;;;4.50;99.90;;;;;;5023324;28;20055;-93
2022/05/02 01:33:09;;;;;;;14.57;9.80;;;4.70;99.90;;;;;;4999773;28;20049;-92
2022/05/02 01:35:35;;;;;;;13.75;9.13;;;5.40;99.90;;;;;;5032263;28;20048;-93
2022/05/02 01:38:00;;;;;;;14.85;8.82;;;5.10;99.90;;;;;;5011227;28;20037;-93
2022/05/02 01:40:26;;;;;;;11.68;9.05;;;4.40;99.90;;;;;;5013373;28;20033;-93
2022/05/02 01:42:52;;;;;;;12.77;9.82;;;4.40;99.90;;;;;;4997733;28;20032;-93
2022/05/02 01:45:18;;;;;;;15.18;10.25;;;4.40;99.90;;;;;;5012744;28;20032;-93
2022/05/02 01:47:43;;;;;;;13.70;8.65;;;4.30;99.90;;;;;;5031880;28;20036;-93
2022/05/02 01:50:09;;;;;;;13.50;10.02;;;5.00;99.90;;;;;;5017305;28;20045;-93
2022/05/02 01:52:34;;;;;;;13.43;10.10;;;4.70;99.90;;;;;;5034517;28;20037;-93
2022/05/02 01:55:00;;;;;;;16.85;10.00;;;4.30;99.90;;;;;;5018483;28;20036;-93
2022/05/02 01:57:26;;;;;;;13.93;9.57;;;5.30;99.90;;;;;;5034144;28;20033;-91
2022/05/02 01:59:52;;;;;;;17.15;10.85;;;4.30;99.90;;;;;;5018320;28;20064;-93
2022/05/02 02:02:17;;;;;;;15.85;10.23;;;4.80;99.90;;;;;;5034633;28;20029;-92
2022/05/02 02:07:28;;;;;;;12.90;9.82;;;5.30;99.90;;;;;;5046492;28;20415;-92
2022/05/02 02:09:53;;;;;;;17.92;10.88;;;5.20;99.90;;;;;;5016361;28;20128;-93
2022/05/02 02:12:19;;;;;;;14.45;10.02;;;4.20;99.90;;;;;;4999234;28;20041;-93
2022/05/02 02:14:44;;;;;;;14.00;10.45;;;4.20;99.90;;;;;;5000531;28;20055;-93
2022/05/02 02:17:10;;;;;;;13.77;10.95;;;4.80;99.90;;;;;;5014134;28;20041;-93
2022/05/02 02:19:36;;;;;;;17.17;11.20;;;4.20;99.90;;;;;;5031700;28;20041;-93
2022/05/02 02:22:16;;;;;;;17.95;10.98;;;4.10;99.90;;;;;;5033191;28;20048;-94
2022/05/02 02:24:48;;;;;;;16.60;10.95;;;4.10;99.90;;;;;;5023969;28;20097;-93
2022/05/02 02:27:14;;;;;;;14.52;10.60;;;4.00;99.90;;;;;;5027706;28;20102;-92
2022/05/02 02:29:40;;;;;;;12.93;10.18;;;4.00;99.90;;;;;;5034401;28;20124;-93
2022/05/02 02:32:06;;;;;;;15.25;10.68;;;4.60;99.90;;;;;;5043169;28;20171;-94
2022/05/02 02:34:32;;;;;;;13.73;10.55;;;4.00;99.90;;;;;;5048065;28;20073;-93
2022/05/02 02:36:57;;;;;;;16.17;10.63;;;4.20;99.90;;;;;;5016565;28;20093;-93
2022/05/02 02:39:23;;;;;;;21.55;11.65;;;4.30;99.90;;;;;;5017334;28;20410;-93
2022/05/02 02:41:49;;;;;;;16.88;11.52;;;3.80;99.90;;;;;;5034278;28;20033;-93
2022/05/02 02:44:15;;;;;;;18.23;11.85;;;4.20;99.90;;;;;;5016830;28;20597;-92
2022/05/02 02:46:40;;;;;;;22.02;11.00;;;3.80;99.90;;;;;;4999183;28;20041;-93
2022/05/02 02:49:09;;;;;;;16.98;10.80;;;4.70;99.90;;;;;;5017740;28;20087;-93
2022/05/02 02:51:35;;;;;;;16.30;11.43;;;4.30;99.90;;;;;;4995814;28;20043;-92
2022/05/02 02:54:00;;;;;;;18.17;11.75;;;4.20;99.90;;;;;;5001375;28;20116;-93
2022/05/02 02:56:26;;;;;;;18.08;12.50;;;4.20;99.90;;;;;;5009450;28;20033;-94
2022/05/02 02:58:52;;;;;;;20.90;12.00;;;3.60;99.90;;;;;;5018488;28;20393;-93
2022/05/02 03:01:17;;;;;;;19.42;12.52;;;4.40;99.90;;;;;;5001438;28;20082;-94
2022/05/02 03:03:43;;;;;;;19.88;11.80;;;4.40;99.90;;;;;;4999557;28;20679;-93
2022/05/02 03:06:09;;;;;;;18.60;12.23;;;4.50;99.90;;;;;;5008091;28;20053;-92
2022/05/02 03:08:36;;;;;;;19.67;12.45;;;4.40;99.90;;;;;;5015138;28;20571;-93
2022/05/02 03:11:03;;;;;;;20.23;12.77;;;3.60;99.90;;;;;;5028740;28;20045;-93
2022/05/02 03:13:29;;;;;;;24.27;12.27;;;3.60;99.90;;;;;;5027280;28;20048;-93
2022/05/02 03:15:55;;;;;;;17.17;12.10;;;4.10;99.90;;;;;;5030701;28;20037;-92
2022/05/02 03:18:22;;;;;;;18.58;11.85;;;4.10;99.90;;;;;;5033106;28;20033;-93
2022/05/02 03:20:48;;;;;;;17.55;11.35;;;4.30;99.90;;;;;;5034487;28;20112;-93
2022/05/02 03:23:14;;;;;;;21.60;11.68;;;4.50;99.90;;;;;;5022469;28;20515;-93
2022/05/02 03:25:40;;;;;;;18.98;11.63;;;3.50;99.90;;;;;;5020728;28;20039;-93
2022/05/02 03:28:06;;;;;;;17.00;11.48;;;4.10;99.90;;;;;;5036262;28;20120;-93
2022/05/02 03:30:31;;;;;;;20.20;12.18;;;3.50;99.90;;;;;;5020599;28;20052;-93
2022/05/02 03:32:57;;;;;;;18.23;11.57;;;3.50;99.90;;;;;;5020435;28;20040;-93
2022/05/02 03:35:23;;;;;;;17.27;11.82;;;3.50;99.90;;;;;;5007680;28;20120;-94
2022/05/02 03:37:48;;;;;;;16.50;11.35;;;3.40;99.90;;;;;;5017848;28;20049;-94
2022/05/02 03:40:14;;;;;;;18.95;11.68;;;3.40;99.90;;;;;;5035483;28;20047;-94
2022/05/02 03:42:40;;;;;;;17.92;11.60;;;4.20;99.90;;;;;;5009291;28;20037;-93
2022/05/02 03:45:07;;;;;;;17.48;12.40;;;3.40;99.90;;;;;;5004117;28;20037;-93
2022/05/02 03:47:32;;;;;;;17.40;11.38;;;3.30;99.90;;;;;;5037599;28;20041;-93
2022/05/02 03:49:58;;;;;;;18.77;12.75;;;3.30;99.90;;;;;;5013227;28;20555;-91
2022/05/02 03:52:24;;;;;;;20.30;12.68;;;3.70;99.90;;;;;;5021556;28;20041;-91
2022/05/02 03:54:49;;;;;;;18.35;11.70;;;3.30;99.90;;;;;;5035193;28;20043;-91
2022/05/02 03:57:15;;;;;;;20.02;12.13;;;4.00;99.90;;;;;;5032865;28;20056;-91
2022/05/02 03:59:41;;;;;;;21.27;13.40;;;3.20;99.90;;;;;;5004552;28;20071;-92
2022/05/02 04:02:07;;;;;;;21.95;13.73;;;3.20;99.90;;;;;;5020506;28;20032;-91
2022/05/02 04:04:32;;;;;;;18.10;12.45;;;4.00;99.90;;;;;;5019912;28;20501;-91
2022/05/02 04:06:58;;;;;;;19.63;12.45;;;3.20;99.90;;;;;;5019503;28;20040;-91
2022/05/02 04:09:24;;;;;;;24.52;13.38;;;3.70;99.90;;;;;;5016655;28;20036;-91
2022/05/02 04:11:49;;;;;;;23.75;14.48;;;3.20;99.90;;;;;;5033986;28;20144;-92
2022/05/02 04:14:15;;;;;;;21.55;13.82;;;4.20;99.90;;;;;;5031695;28;20668;-91
2022/05/02 04:16:41;;;;;;;25.73;14.95;;;4.10;99.90;;;;;;5020465;28;20101;-92
2022/05/02 04:19:09;;;;;;;25.90;16.88;;;3.10;99.90;;;;;;5009805;28;20560;-90
2022/05/02 04:21:35;;;;;;;21.92;14.13;;;3.10;99.90;;;;;;4997336;28;20118;-91
2022/05/02 04:24:01;;;;;;;21.65;13.70;;;3.10;99.90;;;;;;5014336;28;20068;-92
2022/05/02 04:26:26;;;;;;;22.55;13.95;;;3.30;99.90;;;;;;5033610;28;20041;-92
2022/05/02 04:28:55;;;;;;;18.02;13.10;;;3.10;99.90;;;;;;5018628;28;20044;-90
2022/05/02 04:31:20;;;;;;;25.02;15.15;;;3.90;99.90;;;;;;5019677;28;20052;-91
2022/05/02 04:33:46;;;;;;;23.27;15.60;;;3.10;99.90;;;;;;5016422;28;20041;-92
2022/05/02 04:36:12;;;;;;;24.35;16.25;;;3.10;99.90;;;;;;5028854;28;20049;-91
2022/05/02 04:38:38;;;;;;;23.55;14.98;;;3.10;99.90;;;;;;4999819;28;20041;-91
2022/05/02 04:41:04;;;;;;;24.98;15.18;;;4.20;99.90;;;;;;5007020;28;20030;-92
2022/05/02 04:43:29;;;;;;;24.65;15.48;;;3.20;99.90;;;;;;5010056;28;20052;-92
2022/05/02 04:45:55;;;;;;;24.00;15.43;;;3.20;99.90;;;;;;5018948;28;20040;-91
2022/05/02 04:48:21;;;;;;;22.95;14.80;;;3.20;99.90;;;;;;5017314;28;20125;-92
2022/05/02 04:50:46;;;;;;;28.75;16.83;;;3.20;99.90;;;;;;5019008;28;20509;-89
2022/05/02 04:53:12;;;;;;;23.42;15.02;;;3.20;99.90;;;;;;5014167;28;20057;-91
2022/05/02 04:55:38;;;;;;;23.83;15.43;;;3.50;99.90;;;;;;5007741;28;20128;-91
2022/05/02 04:58:03;;;;;;;24.52;15.63;;;3.80;99.90;;;;;;5017280;28;20044;-91
2022/05/02 05:00:29;;;;;;;25.35;16.50;;;3.70;99.90;;;;;;5019888;28;20494;-90
2022/05/02 05:02:55;;;;;;;26.52;16.40;;;3.40;99.90;;;;;;5005791;28;20114;-92
2022/05/02 05:05:21;;;;;;;24.77;16.58;;;3.80;99.90;;;;;;5006727;28;20040;-91
2022/05/02 05:07:47;;;;;;;27.00;17.45;;;3.40;99.90;;;;;;5021360;28;20036;-91
2022/05/02 05:10:12;;;;;;;26.77;16.63;;;3.80;99.90;;;;;;5043001;28;20037;-91
2022/05/02 05:13:07;;;;;;;27.23;17.42;;;3.60;99.90;;;;;;5020566;28;20036;-91
2022/05/02 05:16:24;;;;;;;33.17;17.88;;;3.60;99.90;;;;;;5021731;28;20040;-91
2022/05/02 05:19:03;;;;;;;27.45;17.20;;;3.70;99.90;;;;;;5056722;28;20040;-90
2022/05/02 05:21:48;;;;;;;31.05;17.75;;;3.90;99.90;;;;;;5033596;28;20090;-93
2022/05/02 05:24:53;;;;;;;31.77;19.13;;;3.80;99.90;;;;;;5057468;28;20035;-92
2022/05/02 05:28:01;;;;;;;28.90;18.40;;;3.90;99.90;;;;;;5067592;28;20068;-90
2022/05/02 05:30:30;;;;;;;29.50;17.52;;;3.90;99.90;;;;;;5032982;28;20049;-91
2022/05/02 05:33:22;;;;;;;30.17;17.52;;;4.30;99.90;;;;;;5025862;28;20090;-92
2022/05/02 05:35:56;;;;;;;28.98;18.65;;;4.00;99.90;;;;;;5036246;28;20045;-92
2022/05/02 05:38:33;;;;;;;30.60;16.98;;;4.10;99.90;;;;;;5026645;28;20036;-91
2022/05/02 05:41:21;;;;;;;29.52;19.08;;;4.10;99.90;;;;;;5027866;28;20058;-91
2022/05/02 05:43:58;;;;;;;24.55;16.70;;;4.20;99.90;;;;;;5048767;28;20044;-92
2022/05/02 05:46:52;;;;;;;29.52;19.15;;;4.30;99.90;;;;;;5033674;28;20033;-91
2022/05/02 05:49:20;;;;;;;27.08;17.27;;;4.30;99.90;;;;;;5036171;28;20032;-90
2022/05/02 05:51:49;;;;;;;27.23;17.27;;;4.40;99.90;;;;;;5036858;28;20032;-91
2022/05/02 05:54:27;;;;;;;28.20;18.20;;;4.50;99.90;;;;;;5037430;28;20036;-91
2022/05/02 05:57:15;;;;;;;26.67;16.65;;;4.60;99.90;;;;;;5036594;28;20041;-91
2022/05/02 05:59:59;;;;;;;31.40;16.77;;;4.70;99.90;;;;;;5044180;28;20393;-91
2022/05/02 06:02:44;;;;;;;26.92;17.45;;;4.80;99.90;;;;;;5054173;28;20040;-90
2022/05/02 06:05:13;;;;;;;25.75;16.52;;;4.90;99.90;;;;;;5034481;28;20047;-92
2022/05/02 06:07:39;;;;;;;24.23;16.75;;;5.00;99.90;;;;;;5037281;28;20497;-91
2022/05/02 06:10:08;;;;;;;28.27;16.13;;;5.00;99.90;;;;;;5034539;28;20068;-91
2022/05/02 06:12:36;;;;;;;32.80;18.33;;;5.10;99.90;;;;;;5030409;28;20115;-91
2022/05/02 06:20:38;;;;;;;24.05;15.88;;;5.40;99.90;;;;;;5039104;28;20048;-92
2022/05/02 06:23:09;;;;;;;25.38;16.52;;;5.80;99.90;;;;;;5038358;28;20038;-91
2022/05/02 06:25:37;;;;;;;23.77;15.88;;;5.70;99.90;;;;;;5036588;28;20115;-92
2022/05/02 06:28:04;;;;;;;26.77;16.63;;;6.30;99.90;;;;;;5035747;28;20075;-92
2022/05/02 06:30:31;;;;;;;24.48;16.75;;;5.80;99.90;;;;;;5036757;28;20048;-92
2022/05/02 06:33:08;;;;;;;25.10;16.67;;;6.00;99.90;;;;;;5012721;28;20033;-92
2022/05/02 06:35:44;;;;;;;26.10;17.17;;;6.10;99.90;;;;;;5036512;28;20905;-93
2022/05/02 06:38:21;;;;;;;23.48;16.50;;;6.20;99.90;;;;;;5032445;28;20493;-91
2022/05/02 06:40:58;;;;;;;23.23;16.33;;;6.30;99.90;;;;;;5053602;28;20504;-93
2022/05/02 06:43:40;;;;;;;22.35;15.80;;;6.60;99.90;;;;;;5053440;28;20041;-91
2022/05/02 06:46:19;;;;;;;21.83;15.50;;;6.70;99.90;;;;;;5035495;28;20032;-92
2022/05/02 06:48:49;;;;;;;23.63;16.02;;;6.90;99.90;;;;;;5051019;28;20102;-91
2022/05/02 06:51:22;;;;;;;23.65;15.60;;;7.00;99.90;;;;;;5036988;28;20428;-92
2022/05/02 06:54:15;;;;;;;26.02;15.45;;;7.30;99.90;;;;;;5050179;28;20090;-93
2022/05/02 06:56:48;;;;;;;25.65;14.57;;;7.40;99.90;;;;;;5030582;28;20072;-92
2022/05/02 06:59:38;;;;;;;23.88;15.10;;;7.60;99.90;;;;;;5029567;28;20047;-91
2022/05/02 07:02:42;;;;;;;20.58;14.85;;;7.80;99.90;;;;;;5040189;28;20037;-93
2022/05/02 07:05:29;;;;;;;20.67;14.02;;;8.00;99.90;;;;;;5039344;28;20053;-92
2022/05/02 07:08:03;;;;;;;22.27;13.75;;;8.30;99.90;;;;;;5029574;28;20085;-92
2022/05/02 07:10:33;;;;;;;18.60;13.38;;;8.60;99.90;;;;;;5041729;28;20048;-93
2022/05/02 07:13:23;;;;;;;19.75;12.98;;;8.90;99.90;;;;;;5042194;28;20404;-94
2022/05/02 07:16:16;;;;;;;18.13;11.85;;;9.70;99.90;;;;;;5041894;28;20392;-93
2022/05/02 07:19:00;;;;;;;17.50;11.80;;;10.70;99.90;;;;;;5038995;28;20128;-93
2022/05/02 07:21:30;;;;;;;15.82;11.85;;;11.60;99.90;;;;;;5028455;28;20066;-93
2022/05/02 07:24:26;;;;;;;16.88;11.35;;;12.40;99.90;;;;;;5041964;28;20482;-94
2022/05/02 07:27:21;;;;;;;17.08;11.88;;;12.90;99.90;;;;;;5045625;28;20035;-94
2022/05/02 07:29:49;;;;;;;13.57;10.27;;;13.50;99.90;;;;;;5040622;28;20044;-94
2022/05/02 07:32:16;;;;;;;15.32;11.02;;;13.90;99.90;;;;;;5029761;28;20086;-94
2022/05/02 07:34:47;;;;;;;13.73;10.10;;;14.10;99.90;;;;;;5021926;28;20490;-93
2022/05/02 07:37:15;;;;;;;13.05;9.75;;;14.20;99.90;;;;;;5035450;28;20037;-93
2022/05/02 07:39:43;;;;;;;15.13;8.88;;;14.30;99.90;;;;;;5056845;28;20115;-93
2022/05/02 07:42:10;;;;;;;12.45;8.80;;;14.30;99.90;;;;;;5025926;28;20037;-94
2022/05/02 07:44:38;;;;;;;11.07;8.32;;;14.60;99.90;;;;;;5041716;28;20036;-93
2022/05/02 07:47:05;;;;;;;14.68;9.13;;;15.20;99.90;;;;;;5042133;28;20098;-95
2022/05/02 07:49:34;;;;;;;16.33;9.38;;;15.80;99.90;;;;;;5009867;28;20040;-93
2022/05/02 07:52:03;;;;;;;16.40;8.43;;;16.30;98.80;;;;;;5058469;28;20036;-94
2022/05/02 07:54:35;;;;;;;9.70;8.27;;;16.50;96.70;;;;;;5025177;28;20050;-94
2022/05/02 07:57:04;;;;;;;12.48;8.02;;;16.90;96.40;;;;;;5041651;28;20102;-93
2022/05/02 07:59:39;;;;;;;10.70;7.53;;;17.00;95.60;;;;;;5042108;28;20599;-94
2022/05/02 08:02:06;;;;;;;15.30;7.95;;;17.10;93.60;;;;;;5042342;28;20041;-95
2022/05/02 08:04:32;;;;;;;13.40;8.75;;;17.20;94.20;;;;;;5025013;28;20079;-95
2022/05/02 08:07:15;;;;;;;10.25;8.45;;;16.70;93.50;;;;;;5041547;28;20094;-94
2022/05/02 08:09:40;;;;;;;;;;;16.90;93.30;;;;;;5048551;28;20084;-94
2022/05/02 08:12:31;;;;;;;11.10;8.05;;;17.40;91.60;;;;;;5041275;28;19924;-94
2022/05/02 08:15:02;;;;;;;8.88;7.97;;;17.40;91.10;;;;;;5063466;28;20036;-95
2022/05/02 08:17:41;;;;;;;14.48;7.63;;;17.40;91.20;;;;;;5041175;28;20068;-94
2022/05/02 08:20:20;;;;;;;10.15;7.55;;;17.60;90.20;;;;;;5031894;28;20143;-94
2022/05/02 08:29:34;;;;;;;15.65;7.68;;;18.70;82.40;;;;;;5051075;28;20052;-94
2022/05/02 08:32:12;;;;;;;10.02;7.57;;;18.80;82.60;;;;;;5040380;28;20101;-95
2022/05/02 08:34:38;;;;;;;11.55;7.63;;;18.60;82.50;;;;;;5040531;28;20040;-93
2022/05/02 08:37:41;;;;;;;10.20;7.20;;;18.50;83.30;;;;;;5038853;28;20037;-93
2022/05/02 08:40:24;;;;;;;9.95;7.47;;;18.50;80.20;;;;;;5037337;28;20037;-94
2022/05/02 08:43:24;;;;;;;8.55;7.30;;;18.40;80.40;;;;;;5052703;28;20045;-94
2022/05/02 08:46:11;;;;;;;11.50;7.45;;;18.30;81.50;;;;;;5031606;28;20044;-93
2022/05/02 08:52:23;;;;;;;11.52;7.10;;;18.10;77.50;;;;;;5043102;28;20040;-93
2022/05/02 08:55:07;;;;;;;10.50;7.45;;;17.80;77.20;;;;;;5027381;28;20179;-92
2022/05/02 08:58:10;;;;;;;9.18;7.10;;;17.70;78.50;;;;;;5045119;28;20040;-94
2022/05/02 09:00:51;;;;;;;;;;;17.60;77.70;;;;;;5057326;28;20410;-93
2022/05/02 09:03:17;;;;;;;8.00;6.63;;;17.40;75.40;;;;;;5056525;28;19920;-93
2022/05/02 09:06:18;;;;;;;8.80;7.13;;;17.50;78.60;;;;;;5041990;28;20103;-93
2022/05/02 09:09:32;;;;;;;12.68;7.03;;;17.60;77.80;;;;;;5039621;28;20072;-93
2022/05/02 09:12:08;;;;;;;12.85;6.65;;;17.50;78.70;;;;;;4969802;28;20065;-92
2022/05/02 09:14:59;;;;;;;9.68;6.20;;;17.50;77.30;;;;;;5039108;28;20047;-93
2022/05/02 09:17:34;;;;;;;10.15;6.97;;;17.50;77.00;;;;;;5039102;28;20048;-92
2022/05/02 09:20:08;;;;;;;8.93;6.55;;;17.50;76.10;;;;;;5038265;28;20044;-93
2022/05/02 09:23:16;;;;;;;10.20;6.45;;;17.10;75.80;;;;;;5038958;28;20036;-94
2022/05/02 09:25:57;;;;;;;10.23;6.95;;;17.20;74.60;;;;;;5055802;28;20462;-92
2022/05/02 09:28:38;;;;;;;10.88;6.57;;;17.00;75.70;;;;;;5026489;28;20094;-93
2022/05/02 09:31:28;;;;;;;8.10;5.60;;;17.20;74.90;;;;;;5037956;28;20128;-93
2022/05/02 09:34:16;;;;;;;12.32;6.78;;;17.40;77.20;;;;;;5037908;28;20076;-93
2022/05/02 09:37:01;;;;;;;7.80;6.45;;;17.30;75.80;;;;;;5039092;28;20127;-93
2022/05/02 09:39:46;;;;;;;8.88;7.03;;;17.40;75.30;;;;;;5035615;28;20486;-93
2022/05/02 09:42:37;;;;;;;7.97;6.93;;;17.50;76.50;;;;;;5035384;28;20047;-93
2022/05/02 09:51:13;;;;;;;11.90;7.75;;;17.00;74.50;;;;;;5055196;28;20048;-92
2022/05/02 09:54:03;;;;;;;9.23;7.30;;;17.10;75.00;;;;;;5038404;28;20044;-93
2022/05/02 09:56:38;;;;;;;8.27;7.20;;;17.30;75.00;;;;;;5038589;28;20115;-93
2022/05/02 09:59:24;;;;;;;9.77;7.25;;;17.50;73.20;;;;;;5038985;28;20043;-92
2022/05/02 10:02:08;;;;;;;9.65;7.22;;;17.50;72.80;;;;;;5071897;28;20051;-92
2022/05/02 10:04:53;;;;;;;11.63;6.90;;;17.60;73.20;;;;;;5023630;28;20057;-92
2022/05/02 10:07:23;;;;;;;9.90;7.47;;;17.80;73.00;;;;;;5040502;28;20099;-92
2022/05/02 10:09:55;;;;;;;11.40;7.40;;;17.80;72.80;;;;;;5035336;28;20043;-92
2022/05/02 10:12:34;;;;;;;9.97;7.03;;;17.80;71.60;;;;;;5038910;28;20053;-91
2022/05/02 10:15:25;;;;;;;9.45;7.50;;;18.00;73.00;;;;;;5033942;28;20041;-92
2022/05/02 10:18:09;;;;;;;11.27;8.60;;;18.10;73.20;;;;;;5034086;28;20044;-92
2022/05/02 10:21:03;;;;;;;10.25;8.02;;;18.20;72.30;;;;;;5021495;28;20617;-92
2022/05/02 10:23:53;;;;;;;8.93;7.60;;;18.30;69.30;;;;;;5039278;28;20061;-92
2022/05/02 10:26:32;;;;;;;12.45;9.10;;;18.40;69.00;;;;;;5033516;28;20032;-91
2022/05/02 10:29:23;;;;;;;10.18;8.15;;;18.40;68.50;;;;;;5033375;28;20087;-91
2022/05/02 10:31:58;;;;;;;10.95;7.68;;;17.80;64.10;;;;;;5022320;28;20049;-91
2022/05/02 10:34:27;;;;;;;9.48;7.72;;;17.40;65.80;;;;;;5036186;28;20036;-91
2022/05/02 10:36:55;;;;;;;12.38;8.45;;;17.60;67.90;;;;;;5024309;28;20037;-92
2022/05/02 10:39:50;;;;;;;9.70;7.28;;;18.00;69.70;;;;;;5037088;28;20049;-91
2022/05/02 10:42:20;;;;;;;10.65;8.07;;;18.20;68.80;;;;;;5033616;28;20029;-93
2022/05/02 10:44:55;;;;;;;11.98;7.85;;;18.50;69.50;;;;;;5024928;28;20044;-92
2022/05/02 10:47:23;;;;;;;10.10;7.57;;;18.70;70.00;;;;;;5037119;28;20052;-91
2022/05/02 10:53:21;;;;;;;10.95;7.95;;;18.90;69.10;;;;;;5108197;28;20058;-74
2022/05/02 10:56:06;;;;;;;14.68;7.72;;;19.00;65.90;;;;;;5095835;28;20477;-74
2022/05/02 10:58:34;;;;;;;12.27;8.43;;;18.80;65.10;;;;;;5075949;28;20040;-74
2022/05/02 11:01:06;;;;;;;8.98;7.95;;;18.50;66.70;;;;;;5087427;28;20044;-74
2022/05/02 11:04:00;;;;;;;10.00;8.18;;;18.80;64.80;;;;;;5093690;28;20040;-74
2022/05/02 11:07:02;;;;;;;10.88;8.52;;;18.40;63.50;;;;;;5095680;28;20523;-74
2022/05/02 11:09:50;;;;;;;11.13;8.18;;;18.50;65.00;;;;;;5065556;28;20044;-74
2022/05/02 11:12:22;;;;;;;11.70;8.60;;;18.90;66.90;;;;;;5091089;28;20539;-74
2022/05/02 11:15:06;;;;;;;10.05;7.47;;;19.00;65.30;;;;;;5095702;28;20036;-74
2022/05/02 11:17:41;;;;;;;11.35;9.07;;;19.30;64.50;;;;;;5095302;28;20092;-74
2022/05/02 11:23:37;;;;;;;10.00;7.65;;;19.40;65.00;;;;;;5093033;28;20481;-74
2022/05/02 11:26:43;;;;;;;13.38;7.97;;;19.20;61.30;;;;;;5058087;28;20135;-74
2022/05/02 11:29:12;;;;;;;13.85;8.20;;;19.20;66.20;;;;;;5095222;28;20122;-73
2022/05/02 11:31:53;;;;;;;8.52;7.40;;;19.10;61.80;;;;;;5083924;28;20043;-74
2022/05/02 11:34:37;;;;;;;10.57;7.70;;;19.30;64.10;;;;;;5095185;28;20139;-74
2022/05/02 11:37:15;;;;;;;12.35;8.25;;;19.00;60.20;;;;;;5095468;28;20043;-74
2022/05/02 11:39:56;;;;;;;10.48;8.18;;;19.30;61.50;;;;;;5081145;28;20056;-74
2022/05/02 11:42:22;;;;;;;10.07;7.45;;;19.50;61.40;;;;;;5093940;28;20039;-74
2022/05/02 11:45:11;;;;;;;11.43;7.72;;;19.60;62.60;;;;;;5094181;28;20488;-74
2022/05/02 11:47:40;;;;;;;9.15;7.45;;;19.70;62.50;;;;;;5095374;28;20128;-74
2022/05/02 11:50:08;;;;;;;8.70;7.20;;;19.90;62.10;;;;;;5095045;28;20164;-74
2022/05/02 11:52:38;;;;;;;10.80;7.40;;;20.00;62.60;;;;;;5094046;28;20067;-74
2022/05/02 11:55:08;;;;;;;8.35;7.35;;;20.20;61.80;;;;;;5075023;28;20035;-74
2022/05/02 11:57:38;;;;;;;10.95;7.20;;;20.00;60.40;;;;;;5051177;28;20096;-74
2022/05/02 12:00:26;;;;;;;10.68;7.30;;;19.90;61.70;;;;;;5074390;28;20070;-74
2022/05/02 12:02:56;;;;;;;9.48;7.22;;;19.90;60.60;;;;;;5071543;28;20039;-73
2022/05/02 12:05:46;;;;;;;10.57;7.65;;;20.00;60.60;;;;;;5086441;28;20035;-72
2022/05/02 12:08:34;;;;;;;10.30;8.10;;;20.20;60.20;;;;;;5071460;28;20074;-72
2022/05/02 12:11:10;;;;;;;10.82;7.60;;;20.20;59.30;;;;;;5095481;28;20051;-72
2022/05/02 12:13:40;;;;;;;13.38;7.63;;;20.20;59.20;;;;;;5070914;28;20055;-72
2022/05/02 12:16:27;;;;;;;12.15;7.72;;;19.80;59.00;;;;;;5092762;28;20039;-72
2022/05/02 12:19:00;;;;;;;9.18;7.07;;;19.90;63.10;;;;;;5070219;28;20119;-72
2022/05/02 12:21:35;;;;;;;9.55;7.75;;;20.10;62.20;;;;;;5061881;28;20472;-71
2022/05/02 12:24:03;;;;;;;10.27;7.60;;;20.20;61.70;;;;;;5064366;28;20031;-72
2022/05/02 12:26:32;;;;;;;9.70;7.93;;;20.30;61.30;;;;;;5071269;28;20570;-72
2022/05/02 12:29:04;;;;;;;10.10;7.30;;;20.40;61.50;;;;;;5056128;28;20040;-71
2022/05/02 12:31:34;;;;;;;9.02;7.50;;;20.40;61.20;;;;;;5058811;28;20040;-71
2022/05/02 12:34:09;;;;;;;12.82;8.15;;;20.40;60.20;;;;;;5072643;28;20035;-72
2022/05/02 12:36:52;;;;;;;10.30;7.55;;;20.50;60.70;;;;;;5067967;28;20116;-71
2022/05/02 12:39:26;;;;;;;10.02;7.20;;;20.50;59.80;;;;;;5066706;28;20078;-71
2022/05/02 12:42:17;;;;;;;10.05;7.53;;;20.60;59.80;;;;;;5078461;28;20032;-71
2022/05/02 12:44:57;;;;;;;8.48;6.90;;;20.80;60.30;;;;;;5085502;28;20248;-71
2022/05/02 12:47:25;;;;;;;9.82;7.70;;;21.00;58.20;;;;;;5077778;28;20496;-70
2022/05/02 12:50:03;;;;;;;10.68;7.00;;;21.00;59.50;;;;;;5062686;28;20500;-71
2022/05/02 12:52:31;;;;;;;7.88;6.07;;;20.90;58.90;;;;;;5062932;28;20056;-71
2022/05/02 12:54:57;;;;;;;9.13;7.07;;;20.80;58.80;;;;;;5062048;28;20102;-71
2022/05/02 13:00:31;;;;;;;9.23;7.35;;;20.70;56.80;;;;;;5062108;28;20284;-71
2022/05/02 13:03:01;;;;;;;8.75;6.93;;;20.60;58.20;;;;;;5060512;28;20404;-71
2022/05/02 13:05:31;;;;;;;7.88;6.10;;;20.80;56.30;;;;;;5060496;28;20036;-70
2022/05/02 13:08:06;;;;;;;9.73;6.40;;;20.80;55.60;;;;;;5060440;28;20055;-71
2022/05/02 13:10:32;;;;;;;11.65;5.45;;;20.70;56.10;;;;;;5060071;28;20523;-70
2022/05/02 13:13:13;;;;;;;7.38;5.78;;;20.70;57.10;;;;;;5044546;28;20032;-70
2022/05/02 13:15:47;;;;;;;6.95;5.95;;;20.70;54.90;;;;;;5047036;28;20069;-70
2022/05/02 13:18:17;;;;;;;6.13;5.10;;;20.60;54.30;;;;;;5065037;28;20092;-70
2022/05/02 13:20:55;;;;;;;8.88;5.35;;;20.70;56.60;;;;;;5065601;28;20067;-70
2022/05/02 13:23:44;;;;;;;7.60;6.13;;;20.80;55.00;;;;;;5065463;28;20052;-70
2022/05/02 13:26:37;;;;;;;9.15;5.43;;;21.00;55.10;;;;;;5063816;28;20122;-70
2022/05/02 13:29:23;;;;;;;8.05;6.18;;;21.10;54.50;;;;;;5063757;28;20439;-70
2022/05/02 13:32:27;;;;;;;5.55;4.88;;;21.20;52.20;;;;;;5064924;28;20039;-70
2022/05/02 13:35:01;;;;;;;8.38;4.93;;;21.30;53.70;;;;;;5062976;28;20040;-70
2022/05/02 13:37:43;;;;;;;7.10;5.20;;;21.40;53.80;;;;;;5048557;28;20094;-70
2022/05/02 13:40:11;;;;;;;9.30;5.80;;;21.40;54.10;;;;;;5048364;28;20032;-70
2022/05/02 13:43:02;;;;;;;6.03;4.75;;;21.50;54.00;;;;;;5064488;28;20496;-70
2022/05/02 13:46:00;;;;;;;5.28;4.75;;;21.70;52.70;;;;;;5047958;28;20035;-70
2022/05/02 13:49:03;;;;;;;6.75;5.70;;;21.80;52.70;;;;;;5048302;28;20067;-70
2022/05/02 13:51:39;;;;;;;5.85;4.90;;;22.30;52.10;;;;;;5064172;28;20048;-70